Gloucester, MA (01931)

5:48 AM EDT on April 19, 2015 (GMT -0400)
Washington St close to Hospital | | Change Station
CLOSE
Current Station
Personal Weather Station
Location: Gloucester, MA
Elevation: 39 ft
Nearby Weather Stations

Elev 39 ft 42.63 °N, 70.68 °W | Updated 3 seconds ago

Clear
Clear
41.0 °F
Feels Like 41 °F
N
0.0
Wind Variable Wind from NNW
Gusts 1.0 mph

Today
High -- | Low -- °F
--% Chance of Precip.
Yesterday
High -- | Low -- °F
Precip. -- in
5:55 AM 7:29 PM
New Moon, 1% visible
Pressure 30.15 in
Visibility 10.0 miles
Clouds Clear
Windchill 41 °F
Dew Point 37 °F
Humidity 87%
Rainfall 0.00 in
Snow Depth Not available.
UV 0 out of 12
Pollen 10.80 out of 12
Air Quality Not available.
Flu Activity Widespread
METAR KBVY 190853Z AUTO 36009KT 10SM CLR 06/M01 A3015

More Conditions Fewer Conditions

Pressure 30.15 in
Visibility 10.0 miles
Clouds Clear
Windchill 41 °F
Dew Point 37 °F
Humidity 87%
Rainfall 0.00 in
Snow Depth Not available.
UV 0 out of 12
Pollen 10.80 out of 12
Air Quality Not available.
Flu Activity Widespread
METAR KBVY 190853Z AUTO 36009KT 10SM CLR 06/M01 A3015

More Conditions Fewer Conditions

10-Day Weather Forecast

Almanac

Astronomy

Apr. 19, 2015 Rise Set
Actual Time
Civil Twilight
Nautical Twilight
Astronomical Twilight
Moon
Length of Visible Light
Length of Day
Tomorrow will be .
, % of the Moon is Illuminated

Today's Extremes

State Highs State Lows

Community

WunderPhotos

Upload Photos

1,814,753 photos uploaded!

WunderBlogs® & News

Nearby

Air Quality

  Air Quality AQ Index Pollutant
Not available.

Snow Depth

Station Depth Elevation

Earthquake Activity

City Distance Mag. Time & Date
Minimum magnitude displayed is 2.5.

Coastal Water Temperatures

Place Temperature

Stations

Nearby Weather Stations

Station Location Temp. Windchill Dew Point Humidity Wind Precip. Elev Updated Type